createdAt,value
2022-12-14T00:00:37.257Z,1008.7
2022-12-14T00:06:18.460Z,1008.6
2022-12-14T00:11:55.869Z,1008.6
2022-12-14T00:17:33.225Z,1008.5
2022-12-14T00:23:04.641Z,1008.5
2022-12-14T00:28:36.810Z,1008.6
2022-12-14T00:34:04.455Z,1008.5
2022-12-14T00:39:35.005Z,1008.5
2022-12-14T00:44:55.896Z,1008.4
2022-12-14T00:50:26.703Z,1008.5
2022-12-14T00:56:12.834Z,1008.4
2022-12-14T01:01:17.046Z,1008.3
2022-12-14T01:06:49.823Z,1008.2
2022-12-14T01:12:31.826Z,1008.2
2022-12-14T01:18:12.400Z,1008.1
2022-12-14T01:23:32.099Z,1008.1
2022-12-14T01:28:59.475Z,1008.3
2022-12-14T01:34:38.966Z,1008.3
2022-12-14T01:40:16.440Z,1008.3
2022-12-14T06:11:10.298Z,1005.9
2022-12-14T06:16:51.008Z,1005.9
2022-12-14T06:22:31.747Z,1005.8
2022-12-14T06:27:50.526Z,1005.8
2022-12-14T06:33:30.405Z,1005.8
2022-12-14T06:38:40.660Z,1005.8
2022-12-14T06:44:15.544Z,1005.6
2022-12-14T06:50:09.575Z,1005.7
2022-12-14T06:55:27.788Z,1005.8
2022-12-14T07:00:53.373Z,1005.8
2022-12-14T07:06:16.582Z,1005.7
2022-12-14T07:11:47.589Z,1005.7
2022-12-14T07:17:29.218Z,1005.7
2022-12-14T07:22:49.179Z,1005.7
2022-12-14T07:28:24.998Z,1005.9
2022-12-14T07:34:08.164Z,1005.8
2022-12-14T07:39:43.274Z,1005.9
2022-12-14T07:44:55.762Z,1005.8
2022-12-14T07:50:35.129Z,1005.9
2022-12-14T07:55:59.420Z,1005.9
2022-12-14T08:01:29.263Z,1005.9
2022-12-14T08:07:13.015Z,1005.9
2022-12-14T08:12:47.059Z,1005.7
2022-12-14T08:18:16.636Z,1005.7
2022-12-14T08:23:47.308Z,1005.6
2022-12-14T08:29:06.476Z,1005.6
2022-12-14T08:34:38.194Z,1005.6
2022-12-14T08:40:15.516Z,1005.6
2022-12-14T08:46:02.577Z,1005.5
2022-12-14T08:51:10.181Z,1005.6
2022-12-14T08:56:40.249Z,1005.7
2022-12-14T09:02:17.784Z,1005.6
2022-12-14T09:07:46.409Z,1005.5
2022-12-14T09:13:39.907Z,1005.7
2022-12-14T09:19:12.872Z,1005.7
2022-12-14T09:24:19.540Z,1005.5
2022-12-14T09:29:50.353Z,1005.4
2022-12-14T09:35:22.178Z,1005.5
2022-12-14T09:40:56.209Z,1005.4
2022-12-14T09:46:40.919Z,1005.4
2022-12-14T09:52:17.660Z,1005.5
2022-12-14T09:57:24.944Z,1005.4
2022-12-14T10:03:04.634Z,1005.4
2022-12-14T10:08:55.148Z,1005.4
2022-12-14T10:14:04.635Z,1005.4
2022-12-14T10:19:56.750Z,1005.4
2022-12-14T10:25:24.853Z,1005.4
2022-12-14T10:30:54.979Z,1005.2
2022-12-14T10:36:12.244Z,1005.3
2022-12-14T10:41:43.190Z,1005.2
2022-12-14T10:47:24.773Z,1005
2022-12-14T10:52:45.956Z,1004.9
2022-12-14T10:58:36.301Z,1004.8
2022-12-14T11:03:54.225Z,1004.9
2022-12-14T11:09:25.483Z,1004.8
2022-12-14T11:15:07.942Z,1004.7
2022-12-14T11:20:39.633Z,1004.6
2022-12-14T11:26:02.338Z,1004.6
2022-12-14T11:31:23.959Z,1004.6
2022-12-14T11:37:08.522Z,1004.6
2022-12-14T11:42:49.050Z,1004.7
2022-12-14T11:48:05.428Z,1004.7
2022-12-14T11:53:34.860Z,1004.6
2022-12-14T11:59:04.524Z,1004.5
2022-12-14T12:04:28.294Z,1004.4
2022-12-14T12:10:04.356Z,1004.6
2022-12-14T12:15:30.600Z,1004.6
2022-12-14T12:21:13.757Z,1004.6
2022-12-14T12:26:49.956Z,1004.6
2022-12-14T12:32:26.131Z,1004.5
2022-12-14T12:38:00.199Z,1004.5
2022-12-14T12:43:14.059Z,1004.6
2022-12-14T12:48:55.604Z,1004.5
2022-12-14T12:54:15.897Z,1004.4
2022-12-14T12:59:43.421Z,1004.5
2022-12-14T13:05:47.529Z,1004.4
2022-12-14T13:11:24.907Z,1004.5
2022-12-14T13:16:43.258Z,1004.6
2022-12-14T13:22:04.920Z,1004.5
2022-12-14T13:27:26.692Z,1004.6
2022-12-14T13:33:00.967Z,1004.6
2022-12-14T13:38:50.626Z,1004.6
2022-12-14T13:44:09.679Z,1004.8
2022-12-14T13:49:43.384Z,1004.9
2022-12-14T13:55:20.217Z,1004.9
2022-12-14T14:00:37.854Z,1005
2022-12-14T14:06:17.409Z,1005
2022-12-14T14:11:50.664Z,1005
2022-12-14T14:17:15.908Z,1005.1
2022-12-14T14:23:01.239Z,1005.1
2022-12-14T14:28:11.569Z,1005.1
2022-12-14T14:33:45.865Z,1005
2022-12-14T14:39:46.944Z,1005.1
2022-12-14T14:44:46.363Z,1005
2022-12-14T14:50:37.569Z,1005.1
2022-12-14T14:55:53.015Z,1005.1
2022-12-14T15:01:36.416Z,1005.2
2022-12-14T15:06:49.408Z,1005.1
2022-12-14T15:12:29.120Z,1005.1
2022-12-14T15:18:05.313Z,1005.2
2022-12-14T15:23:23.607Z,1005.2
2022-12-14T15:29:14.518Z,1005.4
2022-12-14T15:34:31.643Z,1005.3
2022-12-14T15:40:06.213Z,1005.3
2022-12-14T15:45:48.019Z,1005.4
2022-12-14T15:51:14.794Z,1005.4
2022-12-14T15:56:39.483Z,1005.4
2022-12-14T16:02:07.477Z,1005.5
2022-12-14T16:07:39.586Z,1005.4
2022-12-14T16:13:32.269Z,1005.3
2022-12-14T16:19:20.630Z,1005.4
2022-12-14T16:24:27.988Z,1005.7
2022-12-14T16:29:49.938Z,1005.7
2022-12-14T16:35:27.295Z,1005.7
2022-12-14T16:41:04.590Z,1005.5
2022-12-14T16:46:21.818Z,1005.5
2022-12-14T16:52:06.672Z,1005.5
2022-12-14T16:57:24.374Z,1005.6
2022-12-14T17:03:09.806Z,1005.5
2022-12-14T17:08:25.751Z,1005.4
2022-12-14T17:14:19.114Z,1005.4
2022-12-14T17:19:29.479Z,1005.5
2022-12-14T17:24:55.476Z,1005.6
2022-12-14T17:30:41.840Z,1005.2
2022-12-14T17:36:23.682Z,1005
2022-12-14T17:41:49.737Z,1005.1
2022-12-14T17:47:03.311Z,1005
2022-12-14T17:52:56.664Z,1005.2
2022-12-14T17:58:25.393Z,1005.4
2022-12-14T18:03:49.183Z,1005.3
2022-12-14T18:09:27.003Z,1005.4
2022-12-14T18:14:59.558Z,1005.3
2022-12-14T18:20:32.459Z,1005.1
2022-12-14T18:26:08.079Z,1004.8
2022-12-14T18:31:38.741Z,1004.8
2022-12-14T18:36:58.633Z,1004.8
2022-12-14T18:42:37.760Z,1004.7
2022-12-14T18:48:06.432Z,1004.8
2022-12-14T18:53:44.730Z,1004.6
2022-12-14T18:59:11.465Z,1004.6
2022-12-14T19:04:35.214Z,1004.6
2022-12-14T19:10:07.208Z,1004.6
2022-12-14T19:15:48.917Z,1004.5
2022-12-14T19:21:06.215Z,1004.7
2022-12-14T19:26:36.196Z,1004.5
2022-12-14T19:32:18.774Z,1004.5
2022-12-14T19:37:55.106Z,1004.5
2022-12-14T19:43:10.250Z,1004.7
2022-12-14T19:49:00.180Z,1004.9
2022-12-14T19:54:19.385Z,1004.8
2022-12-14T19:59:46.355Z,1004.7
2022-12-14T20:05:35.637Z,1004.5
2022-12-14T20:10:53.031Z,1004.5
2022-12-14T20:16:44.042Z,1004.4
2022-12-14T20:27:23.742Z,1004.8
2022-12-14T20:33:22.864Z,1004.7
2022-12-14T20:38:31.714Z,1004.7
2022-12-14T20:44:03.070Z,1004.8
2022-12-14T20:49:37.087Z,1004.7
2022-12-14T20:55:20.422Z,1004.8
2022-12-14T21:01:01.559Z,1004.8
2022-12-14T21:06:12.620Z,1004.8
2022-12-14T21:12:04.716Z,1004.8
2022-12-14T21:17:27.321Z,1004.7
2022-12-14T21:22:47.022Z,1004.8
2022-12-14T21:28:23.494Z,1004.7
2022-12-14T21:34:15.622Z,1004.7
2022-12-14T21:39:52.599Z,1004.7
2022-12-14T21:44:58.085Z,1004.9
2022-12-14T21:50:54.922Z,1004.9
2022-12-14T21:56:01.212Z,1004.9
2022-12-14T22:01:42.482Z,1005
2022-12-14T22:07:17.656Z,1005
2022-12-14T22:13:06.337Z,1004.9
2022-12-14T22:18:39.071Z,1004.9
2022-12-14T22:23:53.559Z,1004.8
2022-12-14T22:29:25.753Z,1004.7
2022-12-14T22:35:00.285Z,1004.9
2022-12-14T22:40:38.804Z,1004.9
2022-12-14T22:46:17.970Z,1004.9
2022-12-14T22:51:45.746Z,1005
2022-12-14T23:02:48.004Z,1004.9
2022-12-14T23:08:31.521Z,1005.1
2022-12-14T23:13:40.067Z,1005.1
2022-12-14T23:19:19.051Z,1005.1
2022-12-14T23:24:49.829Z,1005.1
2022-12-14T23:30:39.744Z,1005.1
2022-12-14T23:36:07.473Z,1005
2022-12-14T23:41:48.476Z,1005.1
2022-12-14T23:46:54.412Z,1005
2022-12-14T23:52:32.746Z,1005
2022-12-14T23:58:14.445Z,1005
